createdAt,value
2022-12-07T00:01:42.540Z,84.80
2022-12-07T00:04:13.212Z,84.73
2022-12-07T00:06:42.524Z,84.72
2022-12-07T00:09:16.653Z,84.77
2022-12-07T00:11:44.121Z,84.60
2022-12-07T00:14:13.704Z,84.53
2022-12-07T00:16:40.528Z,84.54
2022-12-07T00:19:07.263Z,84.60
2022-12-07T00:21:35.847Z,84.67
2022-12-07T00:24:04.045Z,84.56
2022-12-07T00:26:33.415Z,84.48
2022-12-07T00:29:05.861Z,84.49
2022-12-07T00:31:38.846Z,84.65
2022-12-07T00:34:07.386Z,84.60
2022-12-07T00:36:33.881Z,84.54
2022-12-07T00:39:00.914Z,84.60
2022-12-07T00:41:28.467Z,84.63
2022-12-07T00:43:55.591Z,84.75
2022-12-07T00:46:23.599Z,84.74
2022-12-07T00:48:51.232Z,84.79
2022-12-07T00:51:19.699Z,84.83
2022-12-07T00:53:46.688Z,84.77
2022-12-07T00:56:25.247Z,84.89
2022-12-07T00:58:57.493Z,84.73
2022-12-07T01:01:25.554Z,84.81
2022-12-07T01:03:52.197Z,84.83
2022-12-07T01:06:20.592Z,84.83
2022-12-07T01:08:46.985Z,84.89
2022-12-07T01:11:16.592Z,84.99
2022-12-07T01:13:43.688Z,85.03
2022-12-07T01:16:13.253Z,85.04
2022-12-07T01:18:39.985Z,85.00
2022-12-07T01:21:12.039Z,84.96
2022-12-07T01:23:39.445Z,85.04
2022-12-07T01:26:10.495Z,84.93
2022-12-07T01:28:37.381Z,84.97
2022-12-07T01:31:15.174Z,85.02
2022-12-07T01:33:43.631Z,85.06
2022-12-07T01:36:22.349Z,85.20
2022-12-07T01:38:52.728Z,85.12
2022-12-07T01:41:20.852Z,84.97
2022-12-07T01:44:25.285Z,84.89
2022-12-07T01:47:00.656Z,85.26
2022-12-07T01:49:41.565Z,85.19
2022-12-07T01:52:17.787Z,85.40
2022-12-07T01:54:47.115Z,85.40
2022-12-07T01:57:16.181Z,85.41
2022-12-07T01:59:45.714Z,85.32
2022-12-07T02:02:22.104Z,85.36
2022-12-07T02:04:49.416Z,85.39
2022-12-07T02:07:16.045Z,85.41
2022-12-07T02:09:42.426Z,85.46
2022-12-07T02:12:08.954Z,85.48
2022-12-07T02:14:35.582Z,85.52
2022-12-07T02:17:10.329Z,85.48
2022-12-07T02:19:51.150Z,85.41
2022-12-07T02:22:42.377Z,85.38
2022-12-07T02:25:20.106Z,85.44
2022-12-07T02:27:50.618Z,85.38
2022-12-07T02:30:21.584Z,85.31
2022-12-07T02:33:06.012Z,85.39
2022-12-07T02:35:50.752Z,85.47
2022-12-07T02:38:38.975Z,85.52
2022-12-07T02:41:10.298Z,85.35
2022-12-07T02:43:51.180Z,85.50
2022-12-07T02:46:23.327Z,85.27
2022-12-07T02:48:51.450Z,85.43
2022-12-07T02:51:19.330Z,85.50
2022-12-07T02:53:45.831Z,85.48
2022-12-07T02:56:31.167Z,85.37
2022-12-07T02:59:21.770Z,85.57
2022-12-07T03:02:00.029Z,85.46
2022-12-07T03:04:32.403Z,85.26
2022-12-07T03:07:09.622Z,85.43
2022-12-07T03:09:43.989Z,85.46
2022-12-07T03:12:19.759Z,85.54
2022-12-07T03:14:55.308Z,85.30
2022-12-07T03:17:26.775Z,85.33
2022-12-07T03:19:58.098Z,85.53
2022-12-07T03:22:31.891Z,85.53
2022-12-07T03:25:01.304Z,85.55
2022-12-07T03:27:34.230Z,85.53
2022-12-07T03:30:10.532Z,85.64
2022-12-07T03:32:43.617Z,85.64
2022-12-07T03:35:17.345Z,85.57
2022-12-07T03:37:51.028Z,85.81
2022-12-07T03:40:35.571Z,85.70
2022-12-07T03:43:04.694Z,85.78
2022-12-07T03:46:07.269Z,85.73
2022-12-07T03:49:15.478Z,85.76
2022-12-07T03:52:11.429Z,85.79
2022-12-07T03:55:06.734Z,85.74
2022-12-07T03:57:35.398Z,85.76
2022-12-07T04:00:05.505Z,85.69
2022-12-07T04:02:38.905Z,85.71
2022-12-07T04:05:06.564Z,85.70
2022-12-07T04:07:33.064Z,85.63
2022-12-07T04:09:59.892Z,85.68
2022-12-07T04:12:26.716Z,85.63
2022-12-07T04:14:53.089Z,85.67
2022-12-07T04:17:19.542Z,85.51
2022-12-07T04:19:45.921Z,85.52
2022-12-07T04:22:12.344Z,85.43
2022-12-07T04:24:39.148Z,85.53
2022-12-07T04:27:05.528Z,85.52
2022-12-07T04:29:31.920Z,85.39
2022-12-07T04:31:58.405Z,85.36
2022-12-07T04:34:25.201Z,85.28
2022-12-07T04:36:51.624Z,85.29
2022-12-07T04:39:29.380Z,85.15
2022-12-07T04:41:57.119Z,85.15
2022-12-07T04:44:25.760Z,85.31
2022-12-07T04:46:52.820Z,85.16
2022-12-07T04:49:19.936Z,85.15
2022-12-07T04:51:47.014Z,85.17
2022-12-07T04:54:15.428Z,85.14
2022-12-07T04:56:42.699Z,85.04
2022-12-07T04:59:11.578Z,85.19
2022-12-07T05:01:38.265Z,85.04
2022-12-07T05:04:05.143Z,84.99
2022-12-07T05:06:31.872Z,84.95
2022-12-07T05:08:58.337Z,84.97
2022-12-07T05:11:40.483Z,84.81
2022-12-07T05:14:11.844Z,84.77
2022-12-07T05:16:39.468Z,84.63
2022-12-07T05:19:06.439Z,84.58
2022-12-07T05:21:33.020Z,84.60
2022-12-07T05:23:59.669Z,84.50
2022-12-07T05:26:26.149Z,84.19
2022-12-07T05:28:57.184Z,83.99
2022-12-07T05:31:25.052Z,83.82
2022-12-07T05:33:51.471Z,83.43
2022-12-07T05:36:18.502Z,83.56
2022-12-07T05:38:45.817Z,83.49
2022-12-07T05:41:34.577Z,83.61
2022-12-07T05:44:01.210Z,83.77
2022-12-07T05:46:27.604Z,83.63
2022-12-07T05:48:54.016Z,83.55
2022-12-07T05:51:20.587Z,83.73
2022-12-07T05:53:47.026Z,84.49
2022-12-07T05:56:13.504Z,86.72
2022-12-07T05:58:58.753Z,85.26
2022-12-07T06:01:25.234Z,84.43
2022-12-07T06:03:51.745Z,84.04
2022-12-07T06:06:18.162Z,83.99
2022-12-07T06:08:44.577Z,83.90
2022-12-07T06:11:29.812Z,84.01
2022-12-07T06:13:56.253Z,83.89
2022-12-07T06:16:22.686Z,83.91
2022-12-07T06:18:49.165Z,84.08
2022-12-07T06:21:15.596Z,83.95
2022-12-07T06:23:42.015Z,83.91
2022-12-07T06:26:08.424Z,83.77
2022-12-07T06:28:34.811Z,83.62
2022-12-07T06:31:02.250Z,83.72
2022-12-07T06:33:29.533Z,83.57
2022-12-07T06:35:56.324Z,83.46
2022-12-07T06:38:22.704Z,83.46
2022-12-07T06:40:49.393Z,83.37
2022-12-07T06:43:15.896Z,83.41
2022-12-07T06:45:42.465Z,83.22
2022-12-07T06:48:09.085Z,83.21
2022-12-07T06:50:35.904Z,83.08
2022-12-07T06:53:02.331Z,83.08
2022-12-07T06:55:28.793Z,83.04
2022-12-07T06:57:55.272Z,82.94
2022-12-07T07:00:22.583Z,83.01
2022-12-07T07:02:49.185Z,82.84
2022-12-07T07:05:16.777Z,82.86
2022-12-07T07:08:19.772Z,82.89
2022-12-07T07:10:29.678Z,82.79
2022-12-07T07:12:57.817Z,82.75
2022-12-07T07:15:24.518Z,82.53
2022-12-07T07:17:51.053Z,82.40
2022-12-07T07:20:17.653Z,82.31
2022-12-07T07:22:44.061Z,82.18
2022-12-07T07:25:10.785Z,82.04
2022-12-07T07:27:37.176Z,82.25
2022-12-07T07:30:05.060Z,82.14
2022-12-07T07:32:31.605Z,81.92
2022-12-07T07:34:57.968Z,81.92
2022-12-07T07:37:24.479Z,81.72
2022-12-07T07:39:50.855Z,81.70
2022-12-07T07:42:17.610Z,81.68
2022-12-07T07:44:44.125Z,81.75
2022-12-07T07:47:10.645Z,81.75
2022-12-07T07:49:37.085Z,81.69
2022-12-07T07:52:03.891Z,81.72
2022-12-07T07:54:30.261Z,81.62
2022-12-07T07:56:56.661Z,81.55
2022-12-07T07:59:23.266Z,81.70
2022-12-07T08:01:49.661Z,81.66
2022-12-07T08:04:16.403Z,81.83
2022-12-07T08:06:43.099Z,81.84
2022-12-07T08:09:09.677Z,81.74
2022-12-07T08:11:36.878Z,81.58
2022-12-07T08:14:03.400Z,81.56
2022-12-07T08:16:29.838Z,81.39
2022-12-07T08:18:56.617Z,81.25
2022-12-07T08:21:23.001Z,81.22
2022-12-07T08:23:49.377Z,81.29
2022-12-07T08:26:17.239Z,81.21
2022-12-07T08:28:44.976Z,81.10
2022-12-07T08:31:14.745Z,81.16
2022-12-07T08:33:41.449Z,81.13
2022-12-07T08:36:10.285Z,81.00
2022-12-07T08:38:38.216Z,80.99
2022-12-07T08:41:05.138Z,80.96
2022-12-07T08:43:32.210Z,80.69
2022-12-07T08:46:10.292Z,80.38
2022-12-07T08:48:41.321Z,80.34
2022-12-07T08:51:07.902Z,80.23
2022-12-07T08:53:35.795Z,80.03
2022-12-07T08:56:02.621Z,79.81
2022-12-07T08:58:29.155Z,79.78
2022-12-07T09:00:55.539Z,79.65
2022-12-07T09:03:22.167Z,79.49
2022-12-07T09:05:48.695Z,79.56
2022-12-07T09:08:15.876Z,79.16
2022-12-07T09:10:42.398Z,78.99
2022-12-07T09:13:08.787Z,79.09
2022-12-07T09:15:35.237Z,78.83
2022-12-07T09:18:01.641Z,78.75
2022-12-07T09:20:28.481Z,78.61
2022-12-07T09:22:55.140Z,78.48
2022-12-07T09:25:21.810Z,78.42
2022-12-07T09:27:48.303Z,78.33
2022-12-07T09:30:14.754Z,78.33
2022-12-07T09:32:41.298Z,78.02
2022-12-07T09:35:07.979Z,77.94
2022-12-07T09:37:36.376Z,77.85
2022-12-07T09:40:05.432Z,77.70
2022-12-07T09:42:41.823Z,77.79
2022-12-07T09:45:14.515Z,77.62
2022-12-07T09:47:41.279Z,77.44
2022-12-07T09:50:14.292Z,77.05
2022-12-07T09:52:42.960Z,77.20
2022-12-07T09:55:14.527Z,77.33
2022-12-07T09:57:42.792Z,77.25
2022-12-07T10:00:18.049Z,77.23
2022-12-07T10:02:56.062Z,76.85
2022-12-07T10:05:38.937Z,76.78
2022-12-07T10:08:05.955Z,76.67
2022-12-07T10:10:38.834Z,76.82
2022-12-07T10:13:10.901Z,76.63
2022-12-07T10:16:03.537Z,76.66
2022-12-07T10:18:44.679Z,76.78
2022-12-07T10:21:25.501Z,76.68
2022-12-07T10:24:02.177Z,76.91
2022-12-07T10:26:46.821Z,77.20
2022-12-07T10:29:20.605Z,77.29
2022-12-07T10:31:56.695Z,77.50
2022-12-07T10:34:36.444Z,77.59
2022-12-07T10:37:17.457Z,77.62
2022-12-07T10:39:54.704Z,78.00
2022-12-07T10:42:26.016Z,77.92
2022-12-07T10:45:10.456Z,78.05
2022-12-07T10:47:51.010Z,78.20
2022-12-07T10:50:54.372Z,78.04
2022-12-07T10:53:43.260Z,78.17
2022-12-07T10:56:18.588Z,78.12
2022-12-07T10:59:01.272Z,78.09
2022-12-07T11:01:42.769Z,78.19
2022-12-07T11:04:40.448Z,78.20
2022-12-07T11:07:36.416Z,78.18
2022-12-07T11:10:11.570Z,78.15
2022-12-07T11:12:51.907Z,78.15
2022-12-07T11:15:51.913Z,78.02
2022-12-07T11:18:49.260Z,77.93
2022-12-07T11:21:30.670Z,77.98
2022-12-07T11:24:02.539Z,78.06
2022-12-07T11:26:41.153Z,78.08
2022-12-07T11:29:32.973Z,78.05
2022-12-07T11:32:20.276Z,78.07
2022-12-07T11:34:52.997Z,78.07
2022-12-07T11:37:26.109Z,77.99
2022-12-07T11:40:01.876Z,77.82
2022-12-07T11:42:37.934Z,77.74
2022-12-07T11:45:10.115Z,77.67
2022-12-07T11:48:05.665Z,77.46
2022-12-07T11:50:41.279Z,77.42
2022-12-07T11:53:14.453Z,77.33
2022-12-07T11:55:53.343Z,77.19
2022-12-07T11:58:47.894Z,77.04
2022-12-07T12:01:15.527Z,76.96
2022-12-07T12:03:53.563Z,77.05
2022-12-07T12:06:22.215Z,76.88
2022-12-07T12:15:12.184Z,76.56
2022-12-07T12:17:47.445Z,76.46
2022-12-07T12:20:38.469Z,76.53
2022-12-07T12:23:18.504Z,76.48
2022-12-07T12:26:07.430Z,76.39
2022-12-07T12:28:54.692Z,76.54
2022-12-07T12:31:21.171Z,76.34
2022-12-07T12:33:50.439Z,76.35
2022-12-07T12:36:16.837Z,76.22
2022-12-07T12:39:11.164Z,76.30
2022-12-07T12:41:37.892Z,76.20
2022-12-07T12:44:19.603Z,75.94
2022-12-07T12:46:54.709Z,75.56
2022-12-07T12:49:21.081Z,75.56
2022-12-07T12:51:50.463Z,75.44
2022-12-07T12:54:22.419Z,75.59
2022-12-07T12:56:56.282Z,75.48
2022-12-07T12:59:26.814Z,75.47
2022-12-07T13:02:16.163Z,75.30
2022-12-07T13:05:10.421Z,75.25
2022-12-07T13:07:51.953Z,75.47
2022-12-07T13:10:28.813Z,75.38
2022-12-07T13:13:11.231Z,75.18
2022-12-07T13:16:08.065Z,75.15
2022-12-07T13:18:34.645Z,75.17
2022-12-07T13:21:02.365Z,75.10
2022-12-07T13:23:36.266Z,74.85
2022-12-07T13:26:34.890Z,74.86
2022-12-07T13:29:10.602Z,74.67
2022-12-07T13:31:52.625Z,74.81
2022-12-07T13:34:35.567Z,74.62
2022-12-07T13:37:16.077Z,74.84
2022-12-07T13:39:47.747Z,74.55
2022-12-07T13:42:26.576Z,74.65
2022-12-07T13:44:53.972Z,74.67
2022-12-07T13:47:36.148Z,74.44
2022-12-07T13:50:26.466Z,74.47
2022-12-07T13:52:57.002Z,74.47
2022-12-07T13:55:23.424Z,74.48
2022-12-07T13:57:52.570Z,74.55
2022-12-07T14:00:24.822Z,74.44
2022-12-07T14:03:00.036Z,74.34
2022-12-07T14:05:29.143Z,74.48
2022-12-07T14:08:06.464Z,74.41
2022-12-07T14:10:34.576Z,74.45
2022-12-07T14:13:03.248Z,74.55
2022-12-07T14:15:32.614Z,74.48
2022-12-07T14:18:03.740Z,74.48
2022-12-07T14:20:37.089Z,74.54
2022-12-07T14:23:13.636Z,74.53
2022-12-07T14:25:51.030Z,74.83
2022-12-07T14:28:33.184Z,75.01
2022-12-07T14:31:01.302Z,75.00
2022-12-07T14:33:28.576Z,75.20
2022-12-07T14:35:58.085Z,75.37
2022-12-07T14:38:26.438Z,75.48
2022-12-07T14:40:54.939Z,75.61
2022-12-07T14:43:21.368Z,75.65
2022-12-07T14:45:48.030Z,75.76
2022-12-07T14:53:56.778Z,76.17
2022-12-07T14:56:25.217Z,76.37
2022-12-07T14:58:51.941Z,76.52
2022-12-07T15:01:18.377Z,76.53
2022-12-07T15:03:44.975Z,76.67
2022-12-07T15:06:19.480Z,76.59
2022-12-07T15:08:47.420Z,76.62
2022-12-07T15:11:15.531Z,76.48
2022-12-07T15:14:01.168Z,76.51
2022-12-07T15:16:28.857Z,76.42
2022-12-07T15:19:26.811Z,76.29
2022-12-07T15:21:46.474Z,76.32
2022-12-07T15:24:13.000Z,76.30
2022-12-07T15:26:40.940Z,76.12
2022-12-07T15:29:08.385Z,76.09
2022-12-07T15:34:22.166Z,76.09
2022-12-07T15:36:48.776Z,76.11
2022-12-07T15:39:15.572Z,76.20
2022-12-07T15:41:42.149Z,76.25
2022-12-07T15:44:36.142Z,76.16
2022-12-07T15:47:04.083Z,76.25
2022-12-07T15:49:30.626Z,76.37
2022-12-07T15:51:57.084Z,76.44
2022-12-07T15:54:28.222Z,76.36
2022-12-07T15:56:56.012Z,76.32
2022-12-07T15:59:22.645Z,76.35
2022-12-07T16:01:49.318Z,76.40
2022-12-07T16:04:15.815Z,76.38
2022-12-07T16:06:42.286Z,76.49
2022-12-07T16:09:09.127Z,76.34
2022-12-07T16:11:35.581Z,76.38
2022-12-07T16:14:02.263Z,76.31
2022-12-07T16:16:29.123Z,76.31
2022-12-07T16:18:55.693Z,76.39
2022-12-07T16:21:25.406Z,76.41
2022-12-07T16:23:52.345Z,76.31
2022-12-07T16:26:22.118Z,76.37
2022-12-07T16:28:50.160Z,76.24
2022-12-07T16:31:20.703Z,76.26
2022-12-07T16:33:47.946Z,76.31
2022-12-07T16:36:21.350Z,76.33
2022-12-07T16:39:01.545Z,76.36
2022-12-07T16:41:28.134Z,76.29
2022-12-07T16:43:54.611Z,76.29
2022-12-07T16:46:21.024Z,76.19
2022-12-07T16:48:47.451Z,76.25
2022-12-07T16:51:14.526Z,76.24
2022-12-07T16:53:42.526Z,76.28
2022-12-07T16:56:14.728Z,76.27
2022-12-07T16:58:42.506Z,76.20
2022-12-07T17:01:19.975Z,76.23
2022-12-07T17:03:46.939Z,76.25
2022-12-07T17:06:22.159Z,76.06
2022-12-07T17:08:50.059Z,76.14
2022-12-07T17:11:19.135Z,76.15
2022-12-07T17:14:04.546Z,76.14
2022-12-07T17:16:31.159Z,76.02
2022-12-07T17:18:57.721Z,76.05
2022-12-07T17:21:24.837Z,76.00
2022-12-07T17:23:51.604Z,76.09
2022-12-07T17:26:23.671Z,76.20
2022-12-07T17:28:50.337Z,76.20
2022-12-07T17:31:19.773Z,76.28
2022-12-07T17:33:46.385Z,76.51
2022-12-07T17:36:15.540Z,76.64
2022-12-07T17:38:42.447Z,76.68
2022-12-07T17:41:10.205Z,76.70
2022-12-07T17:43:36.894Z,76.82
2022-12-07T17:46:10.165Z,76.91
2022-12-07T17:48:36.998Z,76.88
2022-12-07T17:51:22.342Z,76.98
2022-12-07T17:53:51.010Z,77.02
2022-12-07T17:56:28.459Z,77.05
2022-12-07T17:58:55.573Z,77.08
2022-12-07T18:01:24.263Z,77.16
2022-12-07T18:03:51.364Z,77.25
2022-12-07T18:06:17.836Z,77.14
2022-12-07T18:08:44.277Z,77.08
2022-12-07T18:11:11.086Z,77.32
2022-12-07T18:13:37.583Z,77.24
2022-12-07T18:16:19.030Z,77.36
2022-12-07T18:18:50.740Z,77.44
2022-12-07T18:21:21.666Z,77.44
2022-12-07T18:23:50.516Z,77.58
2022-12-07T18:26:18.166Z,77.58
2022-12-07T18:28:45.688Z,77.72
2022-12-07T18:31:15.517Z,77.71
2022-12-07T18:33:44.498Z,77.75
2022-12-07T18:36:11.443Z,77.84
2022-12-07T18:38:38.850Z,77.83
2022-12-07T18:41:10.858Z,77.91
2022-12-07T18:43:37.870Z,77.80
2022-12-07T18:46:18.384Z,77.84
2022-12-07T18:48:45.476Z,77.96
2022-12-07T18:51:13.529Z,78.01
2022-12-07T18:53:40.131Z,78.03
2022-12-07T18:56:06.803Z,78.06
2022-12-07T18:58:34.010Z,78.05
2022-12-07T19:01:00.607Z,78.02
2022-12-07T19:03:32.814Z,78.02
2022-12-07T19:06:06.516Z,78.03
2022-12-07T19:08:34.084Z,78.13
2022-12-07T19:11:23.813Z,78.20
2022-12-07T19:13:51.017Z,78.11
2022-12-07T19:16:17.550Z,78.10
2022-12-07T19:18:49.312Z,78.17
2022-12-07T19:21:18.043Z,78.09
2022-12-07T19:23:44.496Z,78.17
2022-12-07T19:26:11.095Z,78.23
2022-12-07T19:28:37.644Z,78.33
2022-12-07T19:31:08.423Z,78.22
2022-12-07T19:33:34.784Z,78.07
2022-12-07T19:36:01.193Z,78.16
2022-12-07T19:38:30.007Z,78.04
2022-12-07T19:41:06.885Z,78.15
2022-12-07T19:43:34.421Z,78.13
2022-12-07T19:46:08.447Z,78.22
2022-12-07T19:48:34.912Z,78.20
2022-12-07T19:51:03.481Z,78.13
2022-12-07T19:53:32.699Z,78.24
2022-12-07T19:55:59.175Z,78.35
2022-12-07T19:58:25.610Z,78.41
2022-12-07T20:00:52.562Z,78.45
2022-12-07T20:03:19.835Z,78.49
2022-12-07T20:05:46.801Z,78.51
2022-12-07T20:08:13.324Z,78.58
2022-12-07T20:10:39.925Z,78.54
2022-12-07T20:13:26.893Z,78.57
2022-12-07T20:16:06.361Z,78.53
2022-12-07T20:18:40.934Z,78.48
2022-12-07T20:21:07.291Z,78.52
2022-12-07T20:23:33.767Z,78.55
2022-12-07T20:26:07.398Z,78.61
2022-12-07T20:28:33.787Z,78.63
2022-12-07T20:31:00.489Z,78.58
2022-12-07T20:33:28.351Z,78.37
2022-12-07T20:36:02.764Z,78.43
2022-12-07T20:38:31.622Z,78.38
2022-12-07T20:41:01.372Z,78.39
2022-12-07T20:43:28.607Z,78.42
2022-12-07T20:45:55.489Z,78.45
2022-12-07T20:48:22.966Z,78.42
2022-12-07T20:50:50.441Z,78.44
2022-12-07T20:53:17.134Z,78.45
2022-12-07T20:55:43.646Z,78.49
2022-12-07T20:58:10.431Z,78.46
2022-12-07T21:00:36.977Z,78.52
2022-12-07T21:03:04.283Z,78.25
2022-12-07T21:05:31.933Z,78.20
2022-12-07T21:07:58.460Z,78.15
2022-12-07T21:10:24.922Z,78.01
2022-12-07T21:12:55.633Z,78.12
2022-12-07T21:15:22.517Z,78.09
2022-12-07T21:17:49.218Z,78.10
2022-12-07T21:20:16.311Z,78.08
2022-12-07T21:22:42.796Z,78.02
2022-12-07T21:25:09.192Z,78.02
2022-12-07T21:27:35.668Z,78.06
2022-12-07T21:30:02.613Z,78.00
2022-12-07T21:32:29.016Z,78.01
2022-12-07T21:34:55.429Z,77.99
2022-12-07T21:37:21.820Z,77.96
2022-12-07T21:39:48.238Z,77.98
2022-12-07T21:42:14.602Z,77.97
2022-12-07T21:44:41.002Z,77.94
2022-12-07T21:47:07.437Z,78.04
2022-12-07T21:49:35.652Z,77.96
2022-12-07T21:52:02.679Z,77.80
2022-12-07T21:54:29.459Z,77.92
2022-12-07T21:56:55.948Z,77.89
2022-12-07T21:59:22.622Z,77.85
2022-12-07T22:01:50.164Z,77.89
2022-12-07T22:04:25.248Z,77.87
2022-12-07T22:06:52.939Z,78.09
2022-12-07T22:09:22.482Z,77.85
2022-12-07T22:11:49.109Z,77.86
2022-12-07T22:14:33.972Z,78.14
2022-12-07T22:17:00.455Z,78.08
2022-12-07T22:19:26.851Z,78.02
2022-12-07T22:21:53.316Z,78.06
2022-12-07T22:24:19.856Z,78.07
2022-12-07T22:26:46.360Z,78.01
2022-12-07T22:29:12.951Z,77.94
2022-12-07T22:31:40.274Z,77.90
2022-12-07T22:34:06.713Z,77.99
2022-12-07T22:36:33.113Z,78.13
2022-12-07T22:39:00.600Z,78.05
2022-12-07T22:41:29.647Z,78.07
2022-12-07T22:43:57.806Z,78.08
2022-12-07T22:46:25.177Z,78.09
2022-12-07T22:48:52.717Z,78.07
2022-12-07T22:51:24.690Z,78.04
2022-12-07T22:53:51.988Z,78.05
2022-12-07T22:56:18.474Z,78.17
2022-12-07T22:58:45.418Z,77.99
2022-12-07T23:01:13.961Z,78.02
2022-12-07T23:03:40.540Z,78.00
2022-12-07T23:06:15.345Z,77.99
2022-12-07T23:08:41.959Z,78.07
2022-12-07T23:11:10.237Z,78.09
2022-12-07T23:13:37.365Z,77.89
2022-12-07T23:16:11.465Z,77.91
2022-12-07T23:18:39.564Z,77.96
2022-12-07T23:21:06.685Z,77.97
2022-12-07T23:23:34.331Z,77.98
2022-12-07T23:26:05.098Z,78.09
2022-12-07T23:28:32.543Z,78.11
2022-12-07T23:31:03.619Z,78.00
2022-12-07T23:33:30.534Z,78.00
2022-12-07T23:36:06.435Z,77.96
2022-12-07T23:38:32.860Z,77.97
2022-12-07T23:40:59.268Z,77.95
2022-12-07T23:43:28.156Z,77.92
2022-12-07T23:45:54.801Z,77.88
2022-12-07T23:48:21.209Z,77.96
2022-12-07T23:50:47.782Z,77.98
2022-12-07T23:53:14.134Z,78.15
2022-12-07T23:55:46.656Z,78.05
